Impacts TAF Board
For situational awareness. Not to be used for flight planning purposes.
IDs:

KLGA - New York/La Guardia, NY, US

Issued at 0247 UTC 20 Mar 2019
Updated at 0259 UTC 20 Mar 2019
Potential Impact None Slight Moderate High
Time<<21/03Z 21/04Z 21/05Z 21/06Z 21/07Z 21/08Z 21/09Z 21/10Z 21/11Z 21/12Z 21/13Z 21/14Z 21/15Z
Type PRVL PRVL PRVL
VIS >6 >6 >6
CIG -- 100 100
Cover SCT BKN BKN
FltCat VFR VFR VFR
WX -- -- --
WDir 160 140 140
WSpd 8 4 4
WGst -- -- --
Raw TAF
KLGA 200247Z 2003/2106 19005KT P6SM FEW080
  FM200400 22005KT P6SM SKC
  FM201500 21006KT P6SM FEW250
  FM201900 20010KT P6SM SCT200
  FM202300 16008KT P6SM SCT150
  FM210400 14004KT P6SM BKN100


METAR Board
Radar Display
Forecast Discussion
For situational awareness. Not to be used for flight planning purposes.